Time;durP1;ratioP1;P1;durP2;ratioP2;P2;SDS_P1;SDS_P2;PMS_P1;PMS_P2;Temp;Humidity;BMP_temperature;BMP_pressure;BME280_temperature;BME280_humidity;BME280_pressure;Samples;Min_cycle;Max_cycle;Signal;HPM_P1;HPM_P2
2023/09/14 00:00:35;;;;;;;28.77;5.15;;;;;;;;;;4997352;28;20066;-74
2023/09/14 00:03:02;;;;;;;25.55;4.93;;;;;;;;;;4995078;28;20545;-74
2023/09/14 00:05:30;;;;;;;28.60;4.97;;;;;;;;;;4995602;28;20049;-74
2023/09/14 00:07:58;;;;;;;29.75;4.25;;;;;;;;;;4994903;28;20092;-74
2023/09/14 00:10:25;;;;;;;18.67;4.20;;;;;;;;;;4994924;28;20058;-74
2023/09/14 00:12:55;;;;;;;23.63;4.55;;;;;;;;;;4994890;28;20444;-74
2023/09/14 00:15:23;;;;;;;20.70;4.45;;;;;;;;;;5003637;28;20115;-74
2023/09/14 00:17:50;;;;;;;21.70;4.80;;;;;;;;;;5014233;28;20045;-74
2023/09/14 00:20:19;;;;;;;29.55;4.60;;;;;;;;;;5003060;28;20121;-74
2023/09/14 00:22:46;;;;;;;29.50;5.10;;;;;;;;;;4995318;28;20042;-74
2023/09/14 00:25:13;;;;;;;27.38;4.95;;;;;;;;;;5008800;28;20050;-74
2023/09/14 00:27:41;;;;;;;14.55;4.78;;;;;;;;;;5014180;28;20472;-74
2023/09/14 00:30:09;;;;;;;22.13;4.72;;;;;;;;;;5039225;28;20039;-74
2023/09/14 00:32:40;;;;;;;13.85;4.45;;;;;;;;;;5010395;28;20471;-74
2023/09/14 00:35:08;;;;;;;16.15;4.70;;;;;;;;;;5013890;28;20041;-74
2023/09/14 00:37:37;;;;;;;21.77;4.32;;;;;;;;;;5012596;28;20388;-74
2023/09/14 00:40:09;;;;;;;14.73;4.25;;;;;;;;;;5013840;28;20081;-74
2023/09/14 00:42:46;;;;;;;15.55;4.55;;;;;;;;;;5014067;28;20121;-75
2023/09/14 00:45:15;;;;;;;16.30;4.43;;;;;;;;;;5013722;28;20053;-74
2023/09/14 00:47:45;;;;;;;14.30;3.95;;;;;;;;;;5030179;28;20396;-73
2023/09/14 00:50:17;;;;;;;13.70;4.32;;;;;;;;;;5025701;28;20046;-73
2023/09/14 00:52:47;;;;;;;18.08;4.70;;;;;;;;;;4992821;28;20073;-73
2023/09/14 00:55:15;;;;;;;15.35;4.28;;;;;;;;;;4994323;28;20042;-73
2023/09/14 00:57:44;;;;;;;18.42;4.68;;;;;;;;;;4992753;28;20046;-73
2023/09/14 01:00:12;;;;;;;21.90;4.43;;;;;;;;;;4992733;28;20038;-73
2023/09/14 01:02:40;;;;;;;22.85;4.45;;;;;;;;;;4993967;28;20042;-73
2023/09/14 01:05:08;;;;;;;24.27;5.05;;;;;;;;;;4993147;28;20046;-73
2023/09/14 01:07:36;;;;;;;21.77;4.80;;;;;;;;;;4995778;28;20140;-73
2023/09/14 01:10:09;;;;;;;21.30;4.90;;;;;;;;;;4993173;28;20504;-73
2023/09/14 01:12:37;;;;;;;22.67;5.07;;;;;;;;;;5025329;28;20049;-73
2023/09/14 01:15:07;;;;;;;22.00;4.78;;;;;;;;;;5012103;28;20038;-73
2023/09/14 01:17:50;;;;;;;20.77;4.43;;;;;;;;;;5011808;28;20056;-73
2023/09/14 01:20:21;;;;;;;30.08;4.90;;;;;;;;;;5007265;28;20096;-72
2023/09/14 01:22:48;;;;;;;24.33;4.97;;;;;;;;;;5031358;28;20073;-73
2023/09/14 01:25:31;;;;;;;37.83;6.10;;;;;;;;;;5011801;28;20088;-72
2023/09/14 01:28:11;;;;;;;25.20;5.22;;;;;;;;;;5011823;28;20128;-75
2023/09/14 01:30:40;;;;;;;21.02;4.70;;;;;;;;;;5000897;28;20141;-74
2023/09/14 01:33:10;;;;;;;21.10;4.65;;;;;;;;;;4992251;28;20038;-73
2023/09/14 01:35:47;;;;;;;14.25;4.70;;;;;;;;;;5024894;28;20576;-74
2023/09/14 01:38:15;;;;;;;15.63;4.22;;;;;;;;;;4992054;28;20046;-73
2023/09/14 01:40:44;;;;;;;20.65;4.20;;;;;;;;;;5024625;28;20051;-73
2023/09/14 01:43:13;;;;;;;15.25;4.22;;;;;;;;;;4993260;28;20121;-73
2023/09/14 01:45:41;;;;;;;23.25;4.30;;;;;;;;;;4993208;28;20095;-74
2023/09/14 01:48:09;;;;;;;26.48;4.85;;;;;;;;;;4993197;28;20050;-73
2023/09/14 01:50:37;;;;;;;14.95;4.40;;;;;;;;;;5024622;28;20047;-74
2023/09/14 01:53:04;;;;;;;16.00;4.80;;;;;;;;;;4993595;28;20089;-73
2023/09/14 01:55:32;;;;;;;14.90;4.65;;;;;;;;;;5024508;28;20129;-73
2023/09/14 01:57:59;;;;;;;17.83;4.25;;;;;;;;;;5024490;28;20133;-74
2023/09/14 02:00:27;;;;;;;18.02;4.53;;;;;;;;;;4992973;28;20192;-74
2023/09/14 02:02:54;;;;;;;16.95;4.88;;;;;;;;;;5024165;28;20412;-74
2023/09/14 02:05:22;;;;;;;13.63;5.47;;;;;;;;;;5007695;28;20050;-74
2023/09/14 02:07:49;;;;;;;16.20;4.57;;;;;;;;;;5024044;28;20070;-74
2023/09/14 02:10:19;;;;;;;17.63;4.38;;;;;;;;;;4991688;28;20042;-73
2023/09/14 02:12:48;;;;;;;13.30;4.78;;;;;;;;;;4992864;28;20082;-74
2023/09/14 02:15:16;;;;;;;20.85;5.25;;;;;;;;;;4991733;28;20046;-73
2023/09/14 02:17:44;;;;;;;18.08;4.68;;;;;;;;;;4991712;28;20078;-74
2023/09/14 02:20:11;;;;;;;12.27;4.72;;;;;;;;;;4993541;28;20607;-74
2023/09/14 02:22:39;;;;;;;15.82;5.03;;;;;;;;;;5011952;28;20078;-74
2023/09/14 02:25:07;;;;;;;18.08;4.80;;;;;;;;;;5011851;28;20039;-74
2023/09/14 02:27:35;;;;;;;17.30;5.07;;;;;;;;;;4996792;28;20074;-74
2023/09/14 02:30:03;;;;;;;17.73;5.30;;;;;;;;;;5008509;28;20049;-74
2023/09/14 02:32:31;;;;;;;18.75;4.80;;;;;;;;;;4995428;28;20046;-74
2023/09/14 02:34:58;;;;;;;14.40;4.63;;;;;;;;;;4996685;28;20113;-74
2023/09/14 02:37:26;;;;;;;24.23;5.22;;;;;;;;;;4995234;28;20053;-73
2023/09/14 02:39:53;;;;;;;12.48;4.88;;;;;;;;;;4995128;28;20084;-74
2023/09/14 02:42:21;;;;;;;21.17;4.80;;;;;;;;;;5028029;28;20481;-74
2023/09/14 02:44:49;;;;;;;16.40;4.85;;;;;;;;;;5008077;28;20391;-74
2023/09/14 02:47:16;;;;;;;15.43;5.03;;;;;;;;;;5015934;28;20064;-74
2023/09/14 02:49:44;;;;;;;16.42;4.88;;;;;;;;;;5047339;28;20044;-74
2023/09/14 02:52:11;;;;;;;10.93;4.38;;;;;;;;;;5047606;28;20050;-73
2023/09/14 02:54:39;;;;;;;15.27;4.63;;;;;;;;;;4997529;28;20047;-74
2023/09/14 02:57:07;;;;;;;13.80;4.50;;;;;;;;;;4994821;28;20408;-73
2023/09/14 02:59:35;;;;;;;17.38;4.68;;;;;;;;;;4996230;28;20042;-74
2023/09/14 03:02:03;;;;;;;17.35;4.43;;;;;;;;;;4996042;28;20034;-74
2023/09/14 03:04:30;;;;;;;19.45;5.82;;;;;;;;;;4996093;28;20122;-73
2023/09/14 03:06:58;;;;;;;14.63;5.00;;;;;;;;;;5027401;28;20046;-73
2023/09/14 03:09:25;;;;;;;17.17;6.22;;;;;;;;;;5027544;28;20046;-74
2023/09/14 03:11:54;;;;;;;15.48;5.60;;;;;;;;;;5034141;28;20045;-74
2023/09/14 03:14:22;;;;;;;10.55;5.05;;;;;;;;;;5014140;28;20125;-74
2023/09/14 03:16:50;;;;;;;19.30;5.50;;;;;;;;;;5014161;28;20050;-74
2023/09/14 03:19:18;;;;;;;19.13;5.57;;;;;;;;;;5014004;28;20056;-73
2023/09/14 03:21:46;;;;;;;24.05;6.25;;;;;;;;;;5014050;28;20037;-74
2023/09/14 03:24:14;;;;;;;17.33;5.82;;;;;;;;;;5013932;28;20081;-73
2023/09/14 03:26:42;;;;;;;13.85;5.70;;;;;;;;;;5013928;28;20050;-74
2023/09/14 03:29:09;;;;;;;16.60;5.88;;;;;;;;;;5015104;28;20373;-73
2023/09/14 03:31:37;;;;;;;21.42;5.78;;;;;;;;;;5020609;28;20144;-74
2023/09/14 03:34:07;;;;;;;17.25;6.07;;;;;;;;;;5033504;28;20042;-73
2023/09/14 03:36:34;;;;;;;20.52;6.32;;;;;;;;;;5033469;28;20487;-74
2023/09/14 03:39:02;;;;;;;18.13;6.68;;;;;;;;;;5034685;28;20064;-74
2023/09/14 03:41:34;;;;;;;19.40;6.32;;;;;;;;;;5033498;28;20515;-74
2023/09/14 03:44:01;;;;;;;15.85;6.00;;;;;;;;;;5034526;28;20033;-74
2023/09/14 03:46:30;;;;;;;19.77;6.32;;;;;;;;;;5015709;28;20046;-74
2023/09/14 03:48:58;;;;;;;25.00;7.32;;;;;;;;;;4996949;28;20496;-73
2023/09/14 03:51:25;;;;;;;24.02;7.10;;;;;;;;;;5034700;28;20044;-77
2023/09/14 03:53:52;;;;;;;20.17;6.95;;;;;;;;;;5042318;28;20048;-76
2023/09/14 03:56:20;;;;;;;29.10;8.10;;;;;;;;;;4993773;28;20117;-74
2023/09/14 03:58:48;;;;;;;26.55;7.00;;;;;;;;;;4977598;28;20496;-75
2023/09/14 04:01:15;;;;;;;21.02;6.50;;;;;;;;;;5012810;28;20368;-74
2023/09/14 04:03:43;;;;;;;15.40;5.72;;;;;;;;;;5046260;28;20053;-75
2023/09/14 04:06:11;;;;;;;12.70;5.45;;;;;;;;;;5007668;28;20062;-73
2023/09/14 04:08:39;;;;;;;23.02;6.13;;;;;;;;;;5026231;28;20049;-74
2023/09/14 04:11:06;;;;;;;19.05;6.85;;;;;;;;;;4993514;28;20050;-73
2023/09/14 04:13:35;;;;;;;15.43;5.88;;;;;;;;;;4994650;28;20563;-74
2023/09/14 04:16:07;;;;;;;20.40;5.97;;;;;;;;;;4994886;28;20038;-73
2023/09/14 04:18:38;;;;;;;50.28;7.40;;;;;;;;;;5029754;28;20038;-74
2023/09/14 04:21:07;;;;;;;16.73;5.78;;;;;;;;;;4993199;28;20137;-74
2023/09/14 04:23:34;;;;;;;22.27;6.35;;;;;;;;;;5003906;28;20492;-74
2023/09/14 04:26:04;;;;;;;19.67;5.78;;;;;;;;;;5012847;28;20108;-73
2023/09/14 04:28:33;;;;;;;17.35;5.80;;;;;;;;;;5045754;28;20539;-74
2023/09/14 04:31:02;;;;;;;25.02;6.30;;;;;;;;;;5012468;28;20116;-76
2023/09/14 04:33:31;;;;;;;21.80;6.18;;;;;;;;;;5012699;28;20042;-75
2023/09/14 04:36:03;;;;;;;23.25;5.78;;;;;;;;;;4998682;28;20041;-75
2023/09/14 04:38:32;;;;;;;22.20;5.40;;;;;;;;;;5025717;28;20047;-75
2023/09/14 04:41:05;;;;;;;27.42;6.20;;;;;;;;;;5025543;28;20046;-74
2023/09/14 04:43:33;;;;;;;22.60;5.93;;;;;;;;;;5039428;28;20049;-76
2023/09/14 04:46:03;;;;;;;15.90;6.20;;;;;;;;;;5007489;28;20496;-76
2023/09/14 04:48:31;;;;;;;22.13;6.90;;;;;;;;;;5004911;28;20092;-77
2023/09/14 04:50:59;;;;;;;20.20;5.60;;;;;;;;;;5008943;28;20038;-76
2023/09/14 04:53:27;;;;;;;21.20;5.18;;;;;;;;;;5005434;28;20046;-76
2023/09/14 04:55:55;;;;;;;15.98;5.65;;;;;;;;;;5025487;28;20046;-76
2023/09/14 04:58:23;;;;;;;21.92;4.50;;;;;;;;;;5011176;28;20042;-77
2023/09/14 05:00:54;;;;;;;18.42;5.15;;;;;;;;;;5011106;28;20050;-77
2023/09/14 05:03:22;;;;;;;19.17;6.18;;;;;;;;;;5012299;28;20565;-76
2023/09/14 05:05:53;;;;;;;15.20;5.40;;;;;;;;;;5013403;28;20092;-76
2023/09/14 05:08:21;;;;;;;21.80;6.00;;;;;;;;;;5012061;28;20081;-77
2023/09/14 05:10:52;;;;;;;17.15;5.78;;;;;;;;;;5012216;28;20340;-76
2023/09/14 05:13:20;;;;;;;22.08;5.90;;;;;;;;;;5045216;28;20515;-76
2023/09/14 05:15:48;;;;;;;14.88;4.90;;;;;;;;;;5011979;28;20476;-77
2023/09/14 05:18:20;;;;;;;15.02;5.47;;;;;;;;;;5044884;28;20058;-77
2023/09/14 05:20:48;;;;;;;18.98;6.30;;;;;;;;;;5012017;28;20054;-76
2023/09/14 05:23:15;;;;;;;14.35;5.25;;;;;;;;;;5011867;28;20411;-76
2023/09/14 05:25:44;;;;;;;10.30;5.55;;;;;;;;;;5011965;28;20048;-76
2023/09/14 05:28:12;;;;;;;27.48;6.38;;;;;;;;;;5011857;28;20050;-77
2023/09/14 05:30:39;;;;;;;17.42;5.75;;;;;;;;;;5011906;28;20050;-77
2023/09/14 05:33:09;;;;;;;21.08;6.20;;;;;;;;;;5044788;28;20077;-77
2023/09/14 05:35:37;;;;;;;21.63;6.00;;;;;;;;;;5011676;28;20118;-75
2023/09/14 05:38:06;;;;;;;12.77;5.22;;;;;;;;;;5011880;28;20056;-77
2023/09/14 05:40:33;;;;;;;18.15;5.88;;;;;;;;;;5011479;28;20092;-77
2023/09/14 05:43:01;;;;;;;20.13;6.10;;;;;;;;;;5044655;28;20043;-77
2023/09/14 05:45:29;;;;;;;16.67;5.97;;;;;;;;;;5044738;28;20138;-77
2023/09/14 05:47:57;;;;;;;19.83;6.68;;;;;;;;;;5011542;28;20132;-76
2023/09/14 05:50:25;;;;;;;18.35;7.10;;;;;;;;;;5012955;28;20060;-77
2023/09/14 05:52:55;;;;;;;23.10;8.73;;;;;;;;;;5011603;28;20057;-77
2023/09/14 05:55:23;;;;;;;29.25;12.38;;;;;;;;;;5011117;28;20049;-77
2023/09/14 05:57:51;;;;;;;20.27;8.63;;;;;;;;;;5011522;28;20084;-76
2023/09/14 06:00:19;;;;;;;25.80;10.68;;;;;;;;;;5011478;28;20046;-76
2023/09/14 06:02:51;;;;;;;26.38;8.10;;;;;;;;;;5012796;28;20092;-76
2023/09/14 06:05:19;;;;;;;26.00;8.25;;;;;;;;;;5011512;28;20060;-77
2023/09/14 06:07:52;;;;;;;17.20;8.10;;;;;;;;;;5044383;28;20048;-76
2023/09/14 06:10:20;;;;;;;27.80;7.45;;;;;;;;;;5011438;28;20057;-76
2023/09/14 06:12:50;;;;;;;21.95;6.57;;;;;;;;;;5011468;28;20064;-77
2023/09/14 06:15:18;;;;;;;30.15;7.07;;;;;;;;;;5012582;28;20050;-77
2023/09/14 06:17:49;;;;;;;32.08;8.68;;;;;;;;;;5012928;28;20046;-76
2023/09/14 06:20:17;;;;;;;33.00;12.18;;;;;;;;;;5012629;28;20133;-76
2023/09/14 06:22:44;;;;;;;26.27;10.77;;;;;;;;;;5012586;28;20034;-77
2023/09/14 06:25:12;;;;;;;26.65;9.77;;;;;;;;;;5012421;28;20045;-75
2023/09/14 06:27:39;;;;;;;23.30;8.05;;;;;;;;;;5012424;28;20046;-76
2023/09/14 06:30:08;;;;;;;28.05;8.50;;;;;;;;;;5012559;28;20554;-76
2023/09/14 06:32:35;;;;;;;28.30;8.05;;;;;;;;;;5012471;28;20038;-77
2023/09/14 06:35:03;;;;;;;25.20;8.43;;;;;;;;;;5012616;28;20038;-77
2023/09/14 06:37:30;;;;;;;22.25;8.85;;;;;;;;;;5012337;28;20484;-76
2023/09/14 06:39:58;;;;;;;27.33;9.43;;;;;;;;;;5012289;28;20058;-77
2023/09/14 06:42:25;;;;;;;28.00;8.77;;;;;;;;;;5012421;28;20053;-77
2023/09/14 06:44:53;;;;;;;23.17;9.43;;;;;;;;;;5012344;28;20048;-77
2023/09/14 06:47:20;;;;;;;30.75;11.55;;;;;;;;;;5012361;28;20038;-77
2023/09/14 06:49:48;;;;;;;24.10;9.63;;;;;;;;;;5012221;28;20081;-77
2023/09/14 06:52:15;;;;;;;25.83;8.27;;;;;;;;;;5012312;28;20042;-77
2023/09/14 06:54:43;;;;;;;33.08;8.23;;;;;;;;;;5012322;28;20072;-77
2023/09/14 06:57:10;;;;;;;27.67;7.85;;;;;;;;;;5012290;28;20046;-77
2023/09/14 06:59:38;;;;;;;23.95;7.30;;;;;;;;;;5012382;28;20428;-78
2023/09/14 07:02:06;;;;;;;28.27;8.23;;;;;;;;;;5012119;28;20046;-76
2023/09/14 07:04:34;;;;;;;29.15;7.47;;;;;;;;;;5012315;28;20105;-78
2023/09/14 07:07:02;;;;;;;24.48;7.72;;;;;;;;;;5011868;28;20049;-77
2023/09/14 07:09:30;;;;;;;27.23;8.02;;;;;;;;;;5014492;28;20042;-78
2023/09/14 07:11:58;;;;;;;29.85;7.22;;;;;;;;;;5014493;28;20049;-78
2023/09/14 07:14:25;;;;;;;23.75;7.75;;;;;;;;;;5015843;28;20052;-79
2023/09/14 07:16:53;;;;;;;22.35;7.60;;;;;;;;;;5014338;28;20373;-78
2023/09/14 07:19:26;;;;;;;21.67;6.13;;;;;;;;;;5015822;28;20049;-78
2023/09/14 07:21:57;;;;;;;19.55;6.63;;;;;;;;;;5015383;28;20430;-79
2023/09/14 07:24:26;;;;;;;19.27;7.90;;;;;;;;;;5015774;28;20407;-77
2023/09/14 07:26:54;;;;;;;25.02;11.20;;;;;;;;;;5015276;28;20045;-78
2023/09/14 07:29:22;;;;;;;21.75;8.23;;;;;;;;;;5015175;28;20491;-77
2023/09/14 07:31:50;;;;;;;15.13;5.55;;;;;;;;;;5015283;28;20092;-79
2023/09/14 07:34:19;;;;;;;14.82;5.53;;;;;;;;;;5015244;28;20041;-78
2023/09/14 07:36:46;;;;;;;16.17;5.28;;;;;;;;;;5015075;28;20093;-78
2023/09/14 07:39:14;;;;;;;16.23;5.97;;;;;;;;;;5013660;28;20089;-77
2023/09/14 07:41:41;;;;;;;22.63;5.30;;;;;;;;;;5014889;28;20048;-78
2023/09/14 07:44:09;;;;;;;19.20;6.38;;;;;;;;;;5014918;28;20125;-77
2023/09/14 07:46:37;;;;;;;24.63;6.75;;;;;;;;;;5014848;28;20049;-78
2023/09/14 07:49:05;;;;;;;26.25;5.68;;;;;;;;;;5013601;28;20049;-77
2023/09/14 07:51:33;;;;;;;24.05;5.95;;;;;;;;;;5046625;28;20487;-77
2023/09/14 07:54:00;;;;;;;23.67;6.07;;;;;;;;;;5014721;28;20046;-77
2023/09/14 07:56:28;;;;;;;24.60;5.93;;;;;;;;;;5013522;28;20117;-77
2023/09/14 07:58:56;;;;;;;23.85;6.00;;;;;;;;;;5014790;28;20045;-77
2023/09/14 08:01:24;;;;;;;20.92;6.45;;;;;;;;;;5014613;28;20034;-76
2023/09/14 08:03:51;;;;;;;23.98;5.70;;;;;;;;;;5014695;28;20058;-77
2023/09/14 08:06:21;;;;;;;25.45;5.55;;;;;;;;;;5014378;28;20152;-77
2023/09/14 08:08:53;;;;;;;19.80;5.65;;;;;;;;;;5014605;28;20120;-77
2023/09/14 08:11:21;;;;;;;20.30;5.32;;;;;;;;;;5014722;28;20431;-77
2023/09/14 08:13:48;;;;;;;20.58;5.68;;;;;;;;;;5014444;28;20116;-77
2023/09/14 08:16:16;;;;;;;18.52;5.80;;;;;;;;;;5014352;28;20068;-77
2023/09/14 08:18:43;;;;;;;17.73;5.43;;;;;;;;;;5013833;28;20038;-77
2023/09/14 08:21:11;;;;;;;17.88;6.05;;;;;;;;;;5014245;28;20122;-76
2023/09/14 08:23:39;;;;;;;14.55;5.47;;;;;;;;;;5013032;28;20037;-78
2023/09/14 08:26:07;;;;;;;15.77;5.65;;;;;;;;;;5014095;28;20073;-77
2023/09/14 08:28:34;;;;;;;18.73;5.80;;;;;;;;;;5014409;28;20094;-78
2023/09/14 08:31:02;;;;;;;21.38;5.72;;;;;;;;;;5014051;28;20048;-78
2023/09/14 08:33:30;;;;;;;18.40;6.63;;;;;;;;;;5014352;28;20439;-76
2023/09/14 08:35:57;;;;;;;22.45;6.03;;;;;;;;;;5012804;28;20124;-77
2023/09/14 08:38:26;;;;;;;17.02;6.40;;;;;;;;;;5013954;28;20045;-77
2023/09/14 08:40:54;;;;;;;19.15;6.38;;;;;;;;;;5013971;28;20115;-77
2023/09/14 08:43:22;;;;;;;18.45;5.60;;;;;;;;;;5014044;28;20041;-77
2023/09/14 08:45:50;;;;;;;19.63;6.10;;;;;;;;;;5013876;28;20046;-76
2023/09/14 08:48:21;;;;;;;19.83;6.18;;;;;;;;;;5013783;28;20076;-76
2023/09/14 08:50:49;;;;;;;18.40;5.72;;;;;;;;;;5013906;28;20046;-77
2023/09/14 08:53:17;;;;;;;28.13;6.30;;;;;;;;;;5013707;28;20524;-77
2023/09/14 08:55:44;;;;;;;24.73;6.55;;;;;;;;;;5013889;28;20034;-78
2023/09/14 08:58:13;;;;;;;18.15;6.07;;;;;;;;;;5013523;28;20052;-77
2023/09/14 09:00:41;;;;;;;24.05;6.75;;;;;;;;;;5013703;28;20065;-77
2023/09/14 09:03:08;;;;;;;23.63;6.22;;;;;;;;;;5013596;28;20081;-77
2023/09/14 09:05:36;;;;;;;17.90;7.20;;;;;;;;;;5012368;28;20396;-78
2023/09/14 09:08:04;;;;;;;22.80;6.13;;;;;;;;;;5013470;28;20049;-77
2023/09/14 09:10:32;;;;;;;16.92;5.72;;;;;;;;;;5013374;28;20205;-77
2023/09/14 09:13:03;;;;;;;21.38;6.03;;;;;;;;;;5013403;28;20049;-77
2023/09/14 09:15:32;;;;;;;23.67;6.57;;;;;;;;;;5013361;28;20412;-78
2023/09/14 09:18:04;;;;;;;22.92;6.63;;;;;;;;;;5013237;28;20045;-77
2023/09/14 09:20:32;;;;;;;16.55;6.85;;;;;;;;;;5013301;28;20050;-79
2023/09/14 09:23:01;;;;;;;25.10;6.80;;;;;;;;;;5013499;28;20042;-78
2023/09/14 09:25:32;;;;;;;20.25;6.43;;;;;;;;;;5013187;28;20046;-78
2023/09/14 09:28:00;;;;;;;20.85;6.22;;;;;;;;;;5013234;28;20077;-79
2023/09/14 09:30:32;;;;;;;21.48;7.03;;;;;;;;;;5012341;28;20045;-77
2023/09/14 09:33:03;;;;;;;16.85;6.18;;;;;;;;;;5012950;28;20108;-77
2023/09/14 09:35:34;;;;;;;19.45;5.63;;;;;;;;;;5013126;28;20041;-77
2023/09/14 09:38:10;;;;;;;22.38;6.20;;;;;;;;;;5012950;28;20048;-77
2023/09/14 09:40:41;;;;;;;23.20;7.03;;;;;;;;;;5012862;28;20077;-78
2023/09/14 09:43:09;;;;;;;21.27;6.65;;;;;;;;;;5012986;28;20606;-77
2023/09/14 09:45:40;;;;;;;18.23;5.90;;;;;;;;;;5013171;28;20042;-77
2023/09/14 09:48:09;;;;;;;19.42;6.65;;;;;;;;;;5011542;28;20468;-77
2023/09/14 09:50:37;;;;;;;22.67;6.38;;;;;;;;;;5012854;28;20412;-77
2023/09/14 09:53:09;;;;;;;19.77;6.15;;;;;;;;;;5012857;28;20496;-77
2023/09/14 09:55:37;;;;;;;19.52;5.70;;;;;;;;;;5012988;28;20451;-79
2023/09/14 09:58:06;;;;;;;16.50;5.70;;;;;;;;;;5012640;28;20037;-78
2023/09/14 10:00:37;;;;;;;15.25;5.82;;;;;;;;;;5012652;28;20396;-78
2023/09/14 10:03:05;;;;;;;19.25;5.78;;;;;;;;;;5012750;28;20066;-77
2023/09/14 10:05:40;;;;;;;18.40;5.25;;;;;;;;;;5012756;28;20073;-78
2023/09/14 10:08:12;;;;;;;22.27;6.10;;;;;;;;;;5012772;28;20439;-76
2023/09/14 10:10:41;;;;;;;18.65;5.68;;;;;;;;;;5011410;28;20046;-77
2023/09/14 10:13:16;;;;;;;17.73;6.00;;;;;;;;;;5011393;28;20045;-76
2023/09/14 10:15:44;;;;;;;16.63;5.80;;;;;;;;;;5012699;28;20053;-79
2023/09/14 10:18:13;;;;;;;13.75;4.72;;;;;;;;;;5012614;28;20042;-78
2023/09/14 10:20:41;;;;;;;19.23;5.53;;;;;;;;;;5012760;28;20491;-77
2023/09/14 10:23:15;;;;;;;17.58;5.28;;;;;;;;;;5012522;28;20093;-76
2023/09/14 10:25:45;;;;;;;16.30;4.88;;;;;;;;;;5012681;28;20053;-78
2023/09/14 10:28:15;;;;;;;18.38;5.22;;;;;;;;;;5012329;28;20052;-77
2023/09/14 10:30:46;;;;;;;14.32;4.95;;;;;;;;;;5012389;28;20038;-77
2023/09/14 10:33:14;;;;;;;20.63;5.65;;;;;;;;;;5012486;28;20053;-78
2023/09/14 10:35:43;;;;;;;15.70;6.30;;;;;;;;;;5012430;28;20045;-79
2023/09/14 10:38:12;;;;;;;17.85;5.43;;;;;;;;;;5012487;28;20060;-76
2023/09/14 10:40:39;;;;;;;18.73;5.30;;;;;;;;;;5012985;28;20120;-77
2023/09/14 10:43:07;;;;;;;20.45;5.18;;;;;;;;;;5048245;28;20049;-77
2023/09/14 10:45:37;;;;;;;15.77;5.03;;;;;;;;;;5016622;28;20064;-79
2023/09/14 10:48:06;;;;;;;19.05;5.00;;;;;;;;;;5016222;28;20045;-77
2023/09/14 10:50:34;;;;;;;18.40;5.20;;;;;;;;;;5016178;28;20484;-77
2023/09/14 10:53:02;;;;;;;18.05;5.05;;;;;;;;;;5016352;28;20034;-77
2023/09/14 10:55:31;;;;;;;12.07;4.80;;;;;;;;;;5016383;28;20121;-78
2023/09/14 10:57:58;;;;;;;16.20;5.47;;;;;;;;;;5016398;28;20046;-77
2023/09/14 11:00:42;;;;;;;18.08;4.85;;;;;;;;;;5015943;28;20539;-77
2023/09/14 11:03:23;;;;;;;15.13;4.90;;;;;;;;;;5015970;28;20128;-77
2023/09/14 11:05:53;;;;;;;22.20;5.18;;;;;;;;;;5015886;28;20041;-77
2023/09/14 11:08:27;;;;;;;21.13;5.97;;;;;;;;;;5016274;28;20438;-78
2023/09/14 11:10:58;;;;;;;19.25;5.53;;;;;;;;;;5015954;28;20045;-77
2023/09/14 11:13:30;;;;;;;27.98;6.60;;;;;;;;;;5015683;28;20050;-77
2023/09/14 11:16:06;;;;;;;22.38;6.38;;;;;;;;;;5016208;28;20117;-77
2023/09/14 11:18:52;;;;;;;23.20;5.93;;;;;;;;;;5017650;28;20461;-77
2023/09/14 11:21:33;;;;;;;21.40;6.15;;;;;;;;;;5016296;28;20046;-76
2023/09/14 11:24:05;;;;;;;26.38;5.72;;;;;;;;;;5016252;28;20042;-76
2023/09/14 11:26:38;;;;;;;18.00;5.32;;;;;;;;;;5017736;28;20112;-79
2023/09/14 11:29:08;;;;;;;18.67;4.50;;;;;;;;;;5020592;28;20452;-77
2023/09/14 11:31:37;;;;;;;15.98;5.10;;;;;;;;;;5017093;28;20041;-77
2023/09/14 11:34:24;;;;;;;13.38;4.85;;;;;;;;;;5048286;28;20046;-78
2023/09/14 11:36:58;;;;;;;13.93;5.20;;;;;;;;;;5016164;28;20042;-76
2023/09/14 11:39:34;;;;;;;10.85;4.45;;;;;;;;;;5048067;28;20136;-77
2023/09/14 11:42:04;;;;;;;17.20;4.30;;;;;;;;;;5016550;28;20065;-75
2023/09/14 11:44:49;;;;;;;19.10;4.45;;;;;;;;;;5016692;28;20042;-76
2023/09/14 11:47:25;;;;;;;16.60;4.88;;;;;;;;;;5016029;28;20068;-77
2023/09/14 11:50:02;;;;;;;17.92;5.15;;;;;;;;;;5016377;28;20046;-76
2023/09/14 11:52:31;;;;;;;16.33;5.25;;;;;;;;;;5016025;28;20046;-77
2023/09/14 11:54:59;;;;;;;17.92;4.93;;;;;;;;;;5015274;28;20045;-76
2023/09/14 11:57:27;;;;;;;19.80;6.47;;;;;;;;;;5016277;28;20436;-77
2023/09/14 11:59:55;;;;;;;26.30;5.07;;;;;;;;;;5016497;28;20065;-77
2023/09/14 12:02:22;;;;;;;21.55;4.45;;;;;;;;;;5016293;28;20041;-76
2023/09/14 12:04:50;;;;;;;19.55;5.00;;;;;;;;;;5016041;28;20045;-78
2023/09/14 12:07:21;;;;;;;13.50;4.47;;;;;;;;;;5016386;28;20394;-78
2023/09/14 12:09:49;;;;;;;15.68;5.13;;;;;;;;;;5016715;28;20050;-78
2023/09/14 12:12:30;;;;;;;20.10;6.13;;;;;;;;;;5016049;28;20515;-78
2023/09/14 12:14:58;;;;;;;18.77;5.53;;;;;;;;;;5016287;28;20451;-77
2023/09/14 12:17:26;;;;;;;19.70;5.32;;;;;;;;;;5015784;28;20042;-78
2023/09/14 12:19:56;;;;;;;14.93;4.88;;;;;;;;;;5016161;28;20064;-76
2023/09/14 12:22:25;;;;;;;13.60;5.35;;;;;;;;;;5015956;28;20042;-78
2023/09/14 12:24:53;;;;;;;19.77;5.07;;;;;;;;;;5015708;28;20065;-77
2023/09/14 12:27:21;;;;;;;29.85;5.63;;;;;;;;;;5015325;28;20088;-78
2023/09/14 12:29:49;;;;;;;17.60;6.55;;;;;;;;;;5015736;28;20046;-78
2023/09/14 12:32:17;;;;;;;18.38;5.57;;;;;;;;;;5016122;28;20030;-78
2023/09/14 12:34:45;;;;;;;18.95;5.57;;;;;;;;;;5016148;28;20111;-79
2023/09/14 12:37:17;;;;;;;16.58;4.78;;;;;;;;;;5015816;28;20042;-77
2023/09/14 12:39:51;;;;;;;12.52;4.70;;;;;;;;;;5015570;28;20050;-78
2023/09/14 12:42:22;;;;;;;14.25;4.90;;;;;;;;;;5015807;28;20447;-77
2023/09/14 12:44:50;;;;;;;17.65;4.90;;;;;;;;;;5016107;28;20427;-79
2023/09/14 12:47:17;;;;;;;14.18;4.15;;;;;;;;;;5016098;28;20041;-77
2023/09/14 12:49:45;;;;;;;16.63;4.80;;;;;;;;;;5014114;28;20050;-77
2023/09/14 12:52:13;;;;;;;11.82;4.93;;;;;;;;;;5015539;28;20038;-77
2023/09/14 12:54:44;;;;;;;14.02;4.40;;;;;;;;;;5014968;28;20049;-77
2023/09/14 12:57:15;;;;;;;13.18;4.45;;;;;;;;;;5014835;28;20069;-76
2023/09/14 13:00:07;;;;;;;9.63;4.18;;;;;;;;;;5014401;28;20392;-77
2023/09/14 13:02:35;;;;;;;17.48;4.90;;;;;;;;;;5014684;28;20123;-79
2023/09/14 13:05:05;;;;;;;14.80;4.47;;;;;;;;;;5014638;28;20121;-80
2023/09/14 13:07:32;;;;;;;14.07;4.93;;;;;;;;;;5014451;28;20045;-77
2023/09/14 13:10:06;;;;;;;17.60;5.00;;;;;;;;;;5013097;28;20038;-77
2023/09/14 13:12:35;;;;;;;16.35;5.00;;;;;;;;;;5007323;28;20034;-77
2023/09/14 13:15:10;;;;;;;15.70;5.75;;;;;;;;;;4997591;28;20034;-77
2023/09/14 13:17:38;;;;;;;14.77;4.30;;;;;;;;;;4997357;28;20044;-77
2023/09/14 13:20:09;;;;;;;13.80;4.38;;;;;;;;;;4996836;28;20046;-76
2023/09/14 13:22:37;;;;;;;12.90;4.85;;;;;;;;;;4997992;28;20516;-76
2023/09/14 13:25:05;;;;;;;11.00;4.88;;;;;;;;;;4994592;28;20029;-77
2023/09/14 13:27:34;;;;;;;17.90;5.60;;;;;;;;;;4993105;28;20053;-75
2023/09/14 13:30:05;;;;;;;17.63;4.45;;;;;;;;;;4994010;28;20083;-71
2023/09/14 13:32:33;;;;;;;12.50;4.55;;;;;;;;;;4993198;28;20113;-72
2023/09/14 13:35:01;;;;;;;19.05;5.70;;;;;;;;;;4998710;28;20635;-71
2023/09/14 13:37:28;;;;;;;12.05;5.30;;;;;;;;;;4995939;28;20043;-73
2023/09/14 13:39:56;;;;;;;19.42;5.10;;;;;;;;;;4993915;28;20050;-73
2023/09/14 13:42:23;;;;;;;11.63;4.50;;;;;;;;;;4997280;28;20153;-74
2023/09/14 13:44:52;;;;;;;16.23;4.88;;;;;;;;;;4994927;28;20046;-75
2023/09/14 13:47:20;;;;;;;14.75;4.50;;;;;;;;;;4993670;28;20046;-75
2023/09/14 13:49:47;;;;;;;9.45;4.13;;;;;;;;;;4993663;28;20056;-72
2023/09/14 13:52:15;;;;;;;12.13;4.53;;;;;;;;;;4992125;28;20042;-73
2023/09/14 13:54:42;;;;;;;12.18;4.97;;;;;;;;;;4990561;28;20053;-73
2023/09/14 13:57:10;;;;;;;14.65;4.70;;;;;;;;;;4993239;28;20041;-72
2023/09/14 13:59:37;;;;;;;12.85;4.78;;;;;;;;;;4992921;28;20046;-74
2023/09/14 14:02:05;;;;;;;9.80;4.00;;;;;;;;;;4992457;28;20037;-75
2023/09/14 14:04:33;;;;;;;12.55;4.80;;;;;;;;;;4987225;28;20387;-66
2023/09/14 14:07:00;;;;;;;13.05;5.15;;;;;;;;;;5024674;28;20129;-73
2023/09/14 14:09:28;;;;;;;13.50;4.85;;;;;;;;;;4993799;28;20046;-73
2023/09/14 14:11:58;;;;;;;9.60;4.95;;;;;;;;;;5007602;28;20476;-72
2023/09/14 14:14:25;;;;;;;11.15;5.15;;;;;;;;;;5007722;28;20141;-73
2023/09/14 14:17:04;;;;;;;9.27;4.13;;;;;;;;;;5009794;28;20527;-71
2023/09/14 14:19:31;;;;;;;8.23;4.45;;;;;;;;;;5000105;28;20503;-72
2023/09/14 14:21:59;;;;;;;10.23;5.10;;;;;;;;;;4997054;28;20042;-73
2023/09/14 14:24:30;;;;;;;10.65;4.03;;;;;;;;;;4991872;28;20050;-74
2023/09/14 14:26:58;;;;;;;9.55;4.82;;;;;;;;;;5000528;28;20125;-73
2023/09/14 14:29:26;;;;;;;12.70;5.18;;;;;;;;;;5011253;28;20038;-73
2023/09/14 14:31:53;;;;;;;13.88;5.25;;;;;;;;;;5011847;28;20037;-74
2023/09/14 14:34:21;;;;;;;15.73;5.80;;;;;;;;;;5011317;28;20044;-74
2023/09/14 14:36:48;;;;;;;14.23;5.53;;;;;;;;;;5011196;28;20381;-76
2023/09/14 14:39:16;;;;;;;19.27;5.35;;;;;;;;;;5010865;28;20084;-74
2023/09/14 14:41:44;;;;;;;17.42;6.18;;;;;;;;;;4996689;28;20084;-72